Time;durP1;ratioP1;P1;durP2;ratioP2;P2;SDS_P1;SDS_P2;PMS_P1;PMS_P2;Temp;Humidity;BMP_temperature;BMP_pressure;BME280_temperature;BME280_humidity;BME280_pressure;Samples;Min_cycle;Max_cycle;Signal;HPM_P1;HPM_P2
2022/07/21 00:01:49;;;;;;;12.88;4.63;;;;;;;15.81;100.00;98712.94;5055461;28;20048;-91
2022/07/21 00:04:15;;;;;;;14.23;4.95;;;;;;;15.80;100.00;98716.47;5060925;28;20028;-91
2022/07/21 00:06:42;;;;;;;12.60;4.50;;;;;;;15.67;100.00;98715.09;5045178;28;20028;-91
2022/07/21 00:09:08;;;;;;;12.82;4.60;;;;;;;15.76;100.00;98722.72;5041117;28;20060;-91
2022/07/21 00:11:33;;;;;;;13.48;4.80;;;;;;;15.83;100.00;98716.38;5041427;28;20053;-91
2022/07/21 00:13:59;;;;;;;13.40;4.75;;;;;;;15.77;100.00;98723.56;5042686;28;20224;-91
2022/07/21 00:16:27;;;;;;;11.90;4.55;;;;;;;15.57;100.00;98719.78;5044989;28;20496;-90
2022/07/21 00:18:52;;;;;;;11.45;4.30;;;;;;;15.83;100.00;98718.16;5043451;28;20044;-91
2022/07/21 00:21:18;;;;;;;11.43;4.50;;;;;;;15.72;100.00;98725.50;5043156;28;20029;-93
2022/07/21 00:23:43;;;;;;;12.63;4.57;;;;;;;15.84;100.00;98725.16;5044175;28;20029;-91
2022/07/21 00:26:09;;;;;;;11.50;4.05;;;;;;;16.00;100.00;98718.47;5044321;28;20432;-91
2022/07/21 00:28:34;;;;;;;10.68;4.13;;;;;;;15.90;100.00;98718.84;5061091;28;20044;-91
2022/07/21 00:31:00;;;;;;;11.35;4.32;;;;;;;15.74;100.00;98718.41;5045038;28;20821;-92
2022/07/21 00:33:26;;;;;;;9.13;3.78;;;;;;;15.83;100.00;98721.63;5059881;28;20094;-91
2022/07/21 00:35:51;;;;;;;12.63;4.10;;;;;;;15.64;100.00;98726.59;5045805;28;20036;-92
2022/07/21 00:38:17;;;;;;;10.75;4.15;;;;;;;15.76;100.00;98724.50;5038384;28;20476;-91
2022/07/21 00:40:42;;;;;;;10.88;3.78;;;;;;;15.92;100.00;98712.63;5044172;28;20029;-91
2022/07/21 00:43:08;;;;;;;11.70;4.05;;;;;;;15.83;100.00;98719.00;5044258;28;20114;-91
2022/07/21 00:45:33;;;;;;;10.30;3.55;;;;;;;16.00;100.00;98721.09;5043224;28;20064;-92
2022/07/21 00:47:59;;;;;;;11.20;3.90;;;;;;;16.31;100.00;98721.88;5044016;28;20159;-90
2022/07/21 00:50:24;;;;;;;11.80;4.13;;;;;;;15.65;100.00;98724.81;5045036;28;20078;-91
2022/07/21 00:52:50;;;;;;;12.18;3.92;;;;;;;15.69;100.00;98732.56;5043880;28;20750;-91
2022/07/21 00:55:19;;;;;;;10.93;3.70;;;;;;;15.84;100.00;98740.94;5057371;28;20051;-91
2022/07/21 00:57:46;;;;;;;10.93;4.00;;;;;;;15.86;100.00;98736.47;5061280;28;20098;-90
2022/07/21 01:00:18;;;;;;;12.57;4.28;;;;;;;15.86;100.00;98734.69;5043685;28;22065;-90
2022/07/21 01:02:44;;;;;;;12.00;4.90;;;;;;;15.69;100.00;98735.19;5060360;28;20032;-90
2022/07/21 01:05:14;;;;;;;11.07;4.20;;;;;;;15.86;100.00;98741.72;5061562;28;20573;-91
2022/07/21 01:07:41;;;;;;;10.38;4.53;;;;;;;15.72;100.00;98739.50;5061649;28;20021;-90
2022/07/21 01:10:08;;;;;;;11.73;5.28;;;;;;;15.69;100.00;98747.47;5046267;28;20045;-91
2022/07/21 01:12:34;;;;;;;12.52;5.20;;;;;;;15.78;100.00;98752.47;5059468;28;20036;-91
2022/07/21 01:14:59;;;;;;;13.48;5.63;;;;;;;15.82;100.00;98748.88;5063043;28;20024;-91
2022/07/21 01:17:25;;;;;;;12.85;5.07;;;;;;;15.83;100.00;98750.56;5059046;28;20033;-91
2022/07/21 01:19:51;;;;;;;13.45;5.60;;;;;;;15.76;100.00;98750.78;5059632;28;20507;-90
2022/07/21 01:22:17;;;;;;;15.88;6.18;;;;;;;15.85;100.00;98753.16;5039477;28;20119;-91
2022/07/21 01:24:42;;;;;;;13.23;6.20;;;;;;;15.73;100.00;98757.00;5043445;28;20543;-90
2022/07/21 01:27:08;;;;;;;15.07;6.78;;;;;;;15.67;100.00;98758.03;5057529;28;20059;-90
2022/07/21 01:29:33;;;;;;;15.52;6.32;;;;;;;15.76;100.00;98758.69;5048710;28;20139;-90
2022/07/21 01:31:59;;;;;;;15.27;6.20;;;;;;;15.78;100.00;98762.97;5051514;28;20137;-90
2022/07/21 01:34:24;;;;;;;12.77;5.90;;;;;;;15.67;100.00;98765.03;5071576;28;20017;-91
2022/07/21 01:36:56;;;;;;;12.90;5.28;;;;;;;15.30;100.00;98764.34;5067405;28;20070;-90
2022/07/21 01:42:06;;;;;;;12.57;4.93;;;;;;;15.24;100.00;98771.53;5064431;28;20043;-90
2022/07/21 01:44:32;;;;;;;11.77;4.68;;;;;;;15.68;100.00;98772.91;5049322;28;20051;-90
2022/07/21 01:46:57;;;;;;;10.68;4.28;;;;;;;15.90;100.00;98766.19;5045445;28;20059;-91
2022/07/21 01:49:23;;;;;;;11.20;4.15;;;;;;;15.92;100.00;98769.59;5064388;28;20044;-91
2022/07/21 01:51:49;;;;;;;8.75;3.60;;;;;;;15.94;100.00;98766.03;5064037;28;20036;-90
2022/07/21 01:54:15;;;;;;;9.82;3.53;;;;;;;15.61;100.00;98771.34;5036331;28;20053;-90
2022/07/21 01:56:40;;;;;;;10.40;4.15;;;;;;;15.72;100.00;98781.56;5034832;28;20398;-91
2022/07/21 01:59:07;;;;;;;9.40;3.65;;;;;;;15.69;100.00;98774.63;5031926;28;20416;-90
2022/07/21 02:01:33;;;;;;;9.88;3.40;;;;;;;15.74;100.00;98777.13;5051865;28;20091;-91
2022/07/21 02:04:01;;;;;;;10.23;3.33;;;;;;;15.56;100.00;98775.03;5036950;28;20025;-90
2022/07/21 02:06:27;;;;;;;10.80;3.92;;;;;;;15.27;100.00;98782.84;5040376;28;20297;-90
2022/07/21 02:08:53;;;;;;;9.95;4.10;;;;;;;15.53;100.00;98782.09;5038412;28;20105;-90
2022/07/21 02:11:19;;;;;;;10.75;3.90;;;;;;;15.67;100.00;98781.69;5039605;28;20040;-91
2022/07/21 02:13:45;;;;;;;12.07;4.13;;;;;;;15.62;100.00;98788.00;5039374;28;20784;-91
2022/07/21 02:16:11;;;;;;;11.82;4.47;;;;;;;15.57;100.00;98793.38;5036789;28;20025;-91
2022/07/21 02:18:37;;;;;;;13.80;4.45;;;;;;;15.47;100.00;98794.56;5054018;28;20048;-91
2022/07/21 02:21:04;;;;;;;13.38;4.35;;;;;;;15.38;100.00;98797.44;5042152;28;20021;-92
2022/07/21 02:23:30;;;;;;;15.07;5.00;;;;;;;15.34;100.00;98800.16;5039183;28;20029;-90
2022/07/21 02:25:56;;;;;;;14.07;4.88;;;;;;;15.42;100.00;98796.44;5044610;28;20084;-91
2022/07/21 02:28:23;;;;;;;12.45;4.82;;;;;;;15.39;100.00;98797.38;5037749;28;20037;-91
2022/07/21 02:30:49;;;;;;;14.75;4.80;;;;;;;15.63;100.00;98797.59;5056019;28;20029;-90
2022/07/21 02:33:16;;;;;;;14.45;4.75;;;;;;;15.67;100.00;98796.59;5043669;28;20071;-91
2022/07/21 02:35:42;;;;;;;13.63;5.22;;;;;;;15.59;100.00;98798.59;5043905;28;20033;-92
2022/07/21 02:38:08;;;;;;;13.68;4.75;;;;;;;15.69;100.00;98800.91;5042280;28;20580;-90
2022/07/21 02:40:33;;;;;;;12.50;5.25;;;;;;;15.33;100.00;98798.41;5042873;28;20275;-91
2022/07/21 02:43:00;;;;;;;13.48;5.28;;;;;;;15.38;100.00;98800.06;5043164;28;20477;-91
2022/07/21 02:45:26;;;;;;;12.00;5.07;;;;;;;15.29;100.00;98802.03;5042885;28;20041;-91
2022/07/21 02:47:55;;;;;;;10.43;4.30;;;;;;;15.68;100.00;98803.59;5040786;28;20099;-91
2022/07/21 02:50:23;;;;;;;12.52;4.32;;;;;;;15.61;100.00;98796.78;5039299;28;20048;-89
2022/07/21 02:52:49;;;;;;;13.07;4.90;;;;;;;15.56;100.00;98791.66;5042891;28;20837;-91
2022/07/21 02:55:16;;;;;;;11.38;4.50;;;;;;;15.66;100.00;98801.00;5041325;28;21048;-90
2022/07/21 02:57:41;;;;;;;10.85;4.32;;;;;;;15.04;100.00;98798.38;5043502;28;20044;-91
2022/07/21 03:00:09;;;;;;;12.13;3.70;;;;;;;15.13;100.00;98806.00;5044490;28;20048;-91
2022/07/21 03:02:36;;;;;;;10.60;4.15;;;;;;;15.05;100.00;98813.22;5043217;28;20489;-91
2022/07/21 03:05:01;;;;;;;12.35;4.07;;;;;;;15.59;100.00;98798.59;5042696;28;20739;-91
2022/07/21 03:07:28;;;;;;;10.65;4.30;;;;;;;15.59;100.00;98794.19;5042532;28;20037;-90
2022/07/21 03:09:53;;;;;;;10.95;4.07;;;;;;;15.77;100.00;98784.03;5040335;28;20036;-89
2022/07/21 03:12:19;;;;;;;12.57;4.15;;;;;;;15.25;100.00;98789.88;5041804;28;20044;-91
2022/07/21 03:14:44;;;;;;;11.05;4.10;;;;;;;15.10;100.00;98793.81;5038054;28;20759;-91
2022/07/21 03:17:10;;;;;;;9.65;3.80;;;;;;;14.87;100.00;98794.41;5055276;28;20029;-91
2022/07/21 03:19:36;;;;;;;8.48;3.47;;;;;;;15.58;100.00;98795.09;5043489;28;20075;-90
2022/07/21 03:22:02;;;;;;;11.38;3.83;;;;;;;14.93;100.00;98791.59;5041573;28;20036;-89
2022/07/21 03:24:29;;;;;;;10.65;4.03;;;;;;;15.40;100.00;98788.59;5045928;28;20034;-90
2022/07/21 03:26:55;;;;;;;10.10;3.50;;;;;;;15.47;100.00;98778.78;5043103;28;20032;-91
2022/07/21 03:29:20;;;;;;;9.55;3.47;;;;;;;15.56;100.00;98782.91;5044855;28;20028;-90
2022/07/21 03:31:46;;;;;;;10.95;3.90;;;;;;;15.36;100.00;98797.47;5058497;28;20028;-90
2022/07/21 03:34:15;;;;;;;12.02;3.67;;;;;;;15.20;100.00;98797.06;5043898;28;20025;-90
2022/07/21 03:36:40;;;;;;;8.52;3.72;;;;;;;15.23;100.00;98796.97;5047006;28;20052;-90
2022/07/21 03:39:09;;;;;;;10.00;3.10;;;;;;;15.29;100.00;98799.41;5045876;28;20029;-90
2022/07/21 03:41:35;;;;;;;8.48;3.33;;;;;;;14.74;100.00;98806.13;5047132;28;20041;-91
2022/07/21 03:44:00;;;;;;;10.32;3.45;;;;;;;15.02;100.00;98808.91;5046756;28;20025;-90
2022/07/21 03:46:26;;;;;;;8.70;3.50;;;;;;;14.87;100.00;98812.78;5045702;28;20381;-90
2022/07/21 03:48:51;;;;;;;10.82;3.80;;;;;;;14.90;100.00;98824.97;5048257;28;20043;-90
2022/07/21 03:51:17;;;;;;;8.85;3.30;;;;;;;15.09;100.00;98813.09;5046522;28;20378;-90
2022/07/21 03:53:42;;;;;;;8.95;3.50;;;;;;;15.01;100.00;98815.91;5051007;28;20061;-90
2022/07/21 03:56:08;;;;;;;9.93;3.72;;;;;;;14.85;100.00;98825.97;5050439;28;20036;-90
2022/07/21 03:58:37;;;;;;;8.50;3.13;;;;;;;14.72;100.00;98826.31;5071027;28;20457;-90
2022/07/21 04:01:03;;;;;;;9.88;3.30;;;;;;;14.77;100.00;98833.16;5050566;28;20032;-91
2022/07/21 04:03:30;;;;;;;9.68;3.20;;;;;;;14.69;100.00;98837.75;5074060;28;20043;-89
2022/07/21 04:05:56;;;;;;;8.85;2.92;;;;;;;14.75;100.00;98836.72;5050909;28;20032;-91
2022/07/21 04:08:21;;;;;;;8.23;3.00;;;;;;;14.78;100.00;98834.00;5050914;28;20032;-90
2022/07/21 04:10:47;;;;;;;7.57;2.88;;;;;;;14.75;100.00;98832.34;5062978;28;20043;-90
2022/07/21 04:13:13;;;;;;;7.32;2.53;;;;;;;14.78;100.00;98840.16;5061140;28;20037;-91
2022/07/21 04:15:41;;;;;;;8.80;2.33;;;;;;;14.75;100.00;98831.47;5046484;28;20024;-91
2022/07/21 04:18:07;;;;;;;7.60;2.42;;;;;;;14.67;100.00;98837.78;5061675;28;20064;-90
2022/07/21 04:20:33;;;;;;;5.10;1.70;;;;;;;14.73;100.00;98844.66;5059922;28;20125;-91
2022/07/21 04:22:59;;;;;;;5.03;1.45;;;;;;;14.54;100.00;98846.81;5043354;28;20389;-91
2022/07/21 04:25:24;;;;;;;5.22;1.58;;;;;;;14.53;100.00;98847.72;5061541;28;20020;-91
2022/07/21 04:27:51;;;;;;;5.55;1.70;;;;;;;14.47;100.00;98858.34;5059227;28;20040;-90
2022/07/21 04:30:19;;;;;;;4.88;1.30;;;;;;;14.41;100.00;98856.72;5061550;28;20086;-91
2022/07/21 04:32:45;;;;;;;5.15;1.33;;;;;;;14.42;100.00;98868.97;5062814;28;20035;-91
2022/07/21 04:35:12;;;;;;;4.45;1.30;;;;;;;14.27;100.00;98866.69;5049960;28;20115;-90
2022/07/21 04:37:38;;;;;;;4.43;1.05;;;;;;;14.25;100.00;98879.84;5049287;28;20040;-92
2022/07/21 04:40:06;;;;;;;4.07;1.10;;;;;;;14.35;100.00;98888.38;5050251;28;20160;-91
2022/07/21 04:42:33;;;;;;;3.00;1.02;;;;;;;14.27;100.00;98893.78;5050107;28;20032;-91
2022/07/21 04:44:58;;;;;;;4.22;1.08;;;;;;;14.19;100.00;98894.84;5063482;28;20104;-89
2022/07/21 04:47:24;;;;;;;4.20;1.23;;;;;;;14.08;100.00;98906.41;5065769;28;20477;-89
2022/07/21 04:49:49;;;;;;;3.65;1.10;;;;;;;13.77;100.00;98903.56;5063946;28;20911;-89
2022/07/21 04:52:15;;;;;;;3.92;1.10;;;;;;;13.70;100.00;98910.69;5065172;28;20051;-89
2022/07/21 04:54:41;;;;;;;4.57;1.20;;;;;;;13.92;100.00;98913.75;5063102;28;20531;-89
2022/07/21 04:57:09;;;;;;;4.90;1.20;;;;;;;14.09;100.00;98918.63;5065424;28;20035;-90
2022/07/21 04:59:35;;;;;;;3.95;1.00;;;;;;;14.51;100.00;98926.47;5042359;28;20253;-89
2022/07/21 05:02:01;;;;;;;6.60;1.27;;;;;;;13.83;100.00;98921.78;5059871;28;20035;-89
2022/07/21 05:04:27;;;;;;;15.63;1.92;;;;;;;13.93;100.00;98931.22;5043658;28;20029;-90
2022/07/21 05:06:54;;;;;;;4.07;1.20;;;;;;;13.87;100.00;98939.19;5042210;28;20040;-89
2022/07/21 05:09:20;;;;;;;3.10;1.00;;;;;;;13.97;100.00;98938.13;5047721;28;20040;-89
2022/07/21 05:11:46;;;;;;;5.00;1.35;;;;;;;14.27;100.00;98946.25;5037171;28;20024;-90
2022/07/21 05:14:11;;;;;;;4.68;1.33;;;;;;;14.41;100.00;98942.47;5068286;28;20448;-90
2022/07/21 05:16:37;;;;;;;4.28;1.23;;;;;;;14.16;100.00;98940.38;5062262;28;20130;-91
2022/07/21 05:19:02;;;;;;;5.60;1.15;;;;;;;14.37;100.00;98946.91;5045950;28;20035;-90
2022/07/21 05:21:28;;;;;;;4.05;0.90;;;;;;;14.45;100.00;98938.88;5043114;28;20047;-89
2022/07/21 05:23:53;;;;;;;3.53;0.65;;;;;;;14.22;100.00;98942.00;5039928;28;20051;-90
2022/07/21 05:26:19;;;;;;;4.00;1.00;;;;;;;14.21;100.00;98938.50;5045276;28;20983;-90
2022/07/21 05:28:45;;;;;;;21.70;1.67;;;;;;;14.19;100.00;98942.91;5065893;28;20453;-90
2022/07/21 05:31:10;;;;;;;3.20;1.00;;;;;;;14.29;100.00;98946.22;5043634;28;20591;-90
2022/07/21 05:33:36;;;;;;;2.45;0.68;;;;;;;14.16;100.00;98951.69;5044080;28;20032;-89
2022/07/21 05:36:03;;;;;;;4.78;0.93;;;;;;;14.09;100.00;98960.59;5046370;28;20140;-90
2022/07/21 05:38:44;;;;;;;3.40;0.80;;;;;;;14.07;100.00;98972.00;5044895;28;20480;-89
2022/07/21 05:41:10;;;;;;;7.20;1.30;;;;;;;14.13;100.00;98971.91;5064812;28;20024;-90
2022/07/21 05:43:35;;;;;;;4.10;0.90;;;;;;;14.22;100.00;98971.69;5045359;28;21157;-89
2022/07/21 05:46:01;;;;;;;2.33;0.60;;;;;;;14.02;100.00;98966.00;5043895;28;20535;-89
2022/07/21 05:48:26;;;;;;;2.88;0.80;;;;;;;14.04;100.00;98974.69;5042301;28;20093;-89
2022/07/21 05:50:52;;;;;;;4.57;0.93;;;;;;;13.96;100.00;98983.59;5058674;28;20043;-90
2022/07/21 05:53:18;;;;;;;3.50;0.70;;;;;;;14.06;100.00;98988.66;5036461;28;20028;-90
2022/07/21 05:55:43;;;;;;;4.03;0.90;;;;;;;14.22;100.00;98990.06;5034829;28;20056;-91
2022/07/21 05:58:09;;;;;;;3.00;0.70;;;;;;;14.03;100.00;98993.94;5044278;28;20098;-90
2022/07/21 06:00:34;;;;;;;4.05;0.90;;;;;;;14.11;100.00;98992.91;5047231;28;20139;-90
2022/07/21 06:03:00;;;;;;;3.55;1.02;;;;;;;14.06;100.00;98992.13;5041482;28;20032;-90
2022/07/21 06:05:26;;;;;;;3.67;0.80;;;;;;;14.09;100.00;98999.09;5055627;28;20028;-90
2022/07/21 06:07:52;;;;;;;3.83;0.90;;;;;;;14.13;100.00;99006.00;5043480;28;20097;-93
2022/07/21 06:10:18;;;;;;;3.47;0.90;;;;;;;14.27;100.00;99003.09;5061560;28;20024;-92
2022/07/21 06:12:44;;;;;;;3.47;0.70;;;;;;;14.39;100.00;99005.47;5060396;28;20028;-92
2022/07/21 06:15:11;;;;;;;4.93;0.98;;;;;;;14.29;100.00;99010.06;5045851;28;20102;-92
2022/07/21 06:17:44;;;;;;;4.53;0.88;;;;;;;14.43;100.00;99011.50;5044432;28;20775;-91
2022/07/21 06:20:10;;;;;;;2.80;0.70;;;;;;;14.20;100.00;99012.84;5042610;28;20036;-92
2022/07/21 06:22:37;;;;;;;2.78;0.77;;;;;;;14.20;100.00;99007.59;5045587;28;20508;-92
2022/07/21 06:25:04;;;;;;;5.10;1.25;;;;;;;14.20;100.00;99017.25;5044366;28;20025;-92
2022/07/21 06:27:29;;;;;;;5.05;1.02;;;;;;;14.13;100.00;99019.13;5062444;28;20139;-93
2022/07/21 06:29:56;;;;;;;5.07;1.10;;;;;;;14.05;100.00;99027.13;5065605;28;20035;-94
2022/07/21 06:32:22;;;;;;;3.22;0.80;;;;;;;14.15;100.00;99033.03;5075829;28;20059;-92
2022/07/21 06:34:48;;;;;;;4.70;1.17;;;;;;;14.67;100.00;99037.28;5050261;28;20038;-93
2022/07/21 06:37:13;;;;;;;3.88;1.00;;;;;;;14.27;100.00;99038.06;5068268;28;20481;-92
2022/07/21 06:39:41;;;;;;;4.95;1.30;;;;;;;14.38;100.00;99039.59;5043582;28;20501;-93
2022/07/21 06:42:07;;;;;;;5.88;1.40;;;;;;;14.17;100.00;99054.88;5046568;28;20905;-93
2022/07/21 06:44:33;;;;;;;5.57;1.13;;;;;;;14.12;100.00;99060.19;5048629;28;20074;-92
2022/07/21 06:47:04;;;;;;;6.75;1.27;;;;;;;14.08;100.00;99071.63;5041193;28;20436;-93
2022/07/21 06:49:30;;;;;;;5.75;1.30;;;;;;;13.95;100.00;99072.75;5043470;28;20510;-93
2022/07/21 06:51:56;;;;;;;4.38;1.10;;;;;;;13.99;100.00;99096.28;5044573;28;20036;-92
2022/07/21 06:54:22;;;;;;;4.00;1.10;;;;;;;13.94;100.00;99102.50;5060571;28;20056;-93
2022/07/21 06:56:47;;;;;;;6.30;1.33;;;;;;;14.03;100.00;99111.94;5061669;28;20067;-92
2022/07/21 06:59:13;;;;;;;4.10;1.10;;;;;;;13.99;100.00;99112.00;5044036;28;20033;-93
2022/07/21 07:01:38;;;;;;;5.50;1.10;;;;;;;13.86;100.00;99123.59;5064507;28;20070;-94
2022/07/21 07:04:20;;;;;;;6.90;1.30;;;;;;;13.88;100.00;99144.56;5074360;28;20040;-93
2022/07/21 07:06:58;;;;;;;4.15;1.02;;;;;;;14.05;100.00;99204.59;5064236;28;20108;-95
2022/07/21 07:09:25;;;;;;;4.82;1.27;;;;;;;14.04;100.00;99234.31;5047811;28;20024;-93
2022/07/21 07:11:52;;;;;;;4.07;1.20;;;;;;;13.86;100.00;99232.84;5049806;28;20046;-93
2022/07/21 07:17:20;;;;;;;6.32;1.80;;;;;;;13.75;100.00;99246.09;5065852;28;20032;-94
2022/07/21 07:19:47;;;;;;;5.90;2.20;;;;;;;13.83;100.00;99249.47;5050336;28;20075;-95
2022/07/21 07:22:13;;;;;;;6.45;2.15;;;;;;;13.89;100.00;99252.03;5055155;28;20035;-96
2022/07/21 07:24:39;;;;;;;7.05;2.30;;;;;;;14.06;100.00;99246.53;5055761;28;20116;-94
2022/07/21 07:27:05;;;;;;;9.32;2.72;;;;;;;14.20;100.00;99251.56;5053533;28;20115;-94
2022/07/21 07:29:31;;;;;;;9.27;2.45;;;;;;;14.28;100.00;99254.94;5071031;28;20503;-94
2022/07/21 07:32:50;;;;;;;9.63;2.60;;;;;;;14.15;100.00;99256.00;5052212;28;20035;-94
2022/07/21 07:35:16;;;;;;;6.88;2.70;;;;;;;14.45;100.00;99243.28;5061870;28;20024;-94
2022/07/21 07:37:45;;;;;;;7.15;2.50;;;;;;;14.57;100.00;99237.84;5067638;28;20028;-94
2022/07/21 07:40:14;;;;;;;8.02;2.70;;;;;;;14.72;100.00;99244.56;5050295;28;20157;-95
2022/07/21 07:42:40;;;;;;;8.50;2.78;;;;;;;14.57;100.00;99229.97;5066331;28;20028;-94
2022/07/21 07:45:13;;;;;;;9.23;2.53;;;;;;;14.75;100.00;99225.28;5051169;28;20530;-93
2022/07/21 07:47:40;;;;;;;7.57;2.90;;;;;;;14.74;100.00;99221.81;5054754;28;20472;-93
2022/07/21 07:50:11;;;;;;;9.80;2.70;;;;;;;14.79;100.00;99216.44;5051723;28;20038;-94
2022/07/21 07:52:42;;;;;;;7.68;2.58;;;;;;;14.96;100.00;99209.13;5047953;28;20033;-94
2022/07/21 07:55:10;;;;;;;6.68;2.40;;;;;;;14.74;100.00;99199.91;5057250;28;20060;-91
2022/07/21 07:57:39;;;;;;;6.57;2.45;;;;;;;14.65;100.00;99193.94;5039054;28;20039;-92
2022/07/21 08:00:09;;;;;;;7.45;1.95;;;;;;;14.71;100.00;99197.34;5057147;28;20040;-92
2022/07/21 08:02:35;;;;;;;7.30;2.30;;;;;;;14.72;100.00;99192.06;5057842;28;20067;-92
2022/07/21 08:05:01;;;;;;;8.48;2.65;;;;;;;15.02;100.00;99195.00;5040227;28;20028;-91
2022/07/21 08:07:27;;;;;;;10.50;2.47;;;;;;;14.98;100.00;99186.31;5063772;28;20032;-92
2022/07/21 08:09:52;;;;;;;6.28;2.15;;;;;;;14.94;100.00;99178.53;5058239;28;20036;-93
2022/07/21 08:12:18;;;;;;;10.48;2.20;;;;;;;14.68;100.00;99175.53;5059150;28;20094;-91
2022/07/21 08:14:44;;;;;;;7.20;2.53;;;;;;;14.57;100.00;99172.22;5041892;28;20615;-92
2022/07/21 08:17:10;;;;;;;8.68;2.15;;;;;;;14.51;100.00;99167.06;5040847;28;20121;-92
2022/07/21 08:19:35;;;;;;;8.57;2.63;;;;;;;14.49;100.00;99182.84;5057074;28;21195;-91
2022/07/21 08:22:01;;;;;;;8.35;2.35;;;;;;;14.70;100.00;99182.47;5046557;28;20036;-92
2022/07/21 08:24:27;;;;;;;7.32;2.63;;;;;;;14.66;100.00;99189.56;5043553;28;20578;-90
2022/07/21 08:26:53;;;;;;;7.65;2.40;;;;;;;14.61;100.00;99194.00;5065576;28;20035;-92
2022/07/21 08:29:18;;;;;;;6.47;2.30;;;;;;;14.71;100.00;99202.59;5047749;28;20032;-93
2022/07/21 08:31:44;;;;;;;7.65;2.80;;;;;;;14.94;100.00;99205.66;5056497;28;20039;-93
2022/07/21 08:34:10;;;;;;;9.15;2.53;;;;;;;14.96;100.00;99201.25;5047373;28;20025;-92
2022/07/21 08:36:35;;;;;;;7.10;2.72;;;;;;;15.09;100.00;99196.59;5052360;28;20028;-92
2022/07/21 08:39:01;;;;;;;7.53;2.67;;;;;;;15.08;100.00;99200.13;5050793;28;20090;-93
2022/07/21 08:41:27;;;;;;;6.43;2.40;;;;;;;14.97;100.00;99188.97;5048877;28;20028;-92
2022/07/21 08:43:53;;;;;;;7.20;2.15;;;;;;;14.97;100.00;99187.19;5042598;28;20483;-92
2022/07/21 08:46:22;;;;;;;8.35;2.20;;;;;;;15.29;100.00;99179.56;5052334;28;20043;-93
2022/07/21 08:48:49;;;;;;;9.38;2.72;;;;;;;15.58;100.00;99171.03;5040806;28;20032;-92
2022/07/21 08:51:16;;;;;;;7.30;2.22;;;;;;;14.73;100.00;99161.44;5037822;28;20036;-92
2022/07/21 08:53:47;;;;;;;7.32;2.35;;;;;;;14.56;100.00;99172.22;5061269;28;20102;-92
2022/07/21 08:56:13;;;;;;;7.22;2.30;;;;;;;14.44;100.00;99178.56;5044771;28;20044;-93
2022/07/21 08:58:41;;;;;;;7.03;2.42;;;;;;;14.98;100.00;99194.19;5067018;28;20703;-92
2022/07/21 09:01:07;;;;;;;7.97;2.60;;;;;;;14.93;100.00;99200.44;5063707;28;20253;-92
2022/07/21 09:03:34;;;;;;;6.80;2.58;;;;;;;15.58;100.00;99205.19;5065249;28;20020;-92
2022/07/21 09:06:06;;;;;;;7.07;2.45;;;;;;;15.62;100.00;99192.88;5046425;28;20485;-93
2022/07/21 09:08:37;;;;;;;7.07;2.30;;;;;;;15.38;100.00;99178.47;5047570;28;20028;-92
2022/07/21 09:11:32;;;;;;;7.90;2.70;;;;;;;15.84;100.00;99172.22;5066312;28;20029;-92
2022/07/21 09:14:05;;;;;;;8.80;2.30;;;;;;;15.51;100.00;99158.94;5060320;28;20057;-92
2022/07/21 09:16:40;;;;;;;6.68;2.47;;;;;;;15.82;100.00;99150.34;5057492;28;20124;-92
2022/07/21 09:19:14;;;;;;;10.40;2.55;;;;;;;15.67;100.00;99148.91;5041645;28;20128;-92
2022/07/21 09:21:40;;;;;;;9.13;2.55;;;;;;;15.79;100.00;99155.66;5043113;28;20078;-93
2022/07/21 09:24:19;;;;;;;7.28;2.40;;;;;;;15.71;100.00;99161.06;5059796;28;20024;-91
2022/07/21 09:27:13;;;;;;;7.15;2.25;;;;;;;15.70;100.00;99160.22;5063361;28;20036;-92
2022/07/21 09:29:47;;;;;;;7.65;2.63;;;;;;;16.00;100.00;99162.19;5054297;28;20122;-95
2022/07/21 09:32:24;;;;;;;7.72;2.30;;;;;;;15.81;100.00;99152.13;5060607;28;20489;-95
2022/07/21 09:35:05;;;;;;;8.25;2.50;;;;;;;16.35;100.00;99152.53;5063410;28;20497;-94
2022/07/21 09:37:33;;;;;;;6.18;2.45;;;;;;;16.08;100.00;99136.56;5045670;28;20063;-95
2022/07/21 09:40:19;;;;;;;8.50;2.90;;;;;;;16.19;100.00;99139.75;5048633;28;20107;-96
2022/07/21 09:42:51;;;;;;;7.43;2.70;;;;;;;16.32;100.00;99134.19;5069755;28;20033;-94
2022/07/21 09:45:20;;;;;;;8.68;3.00;;;;;;;16.30;100.00;99128.13;5067529;28;20089;-95
2022/07/21 09:47:52;;;;;;;6.55;2.35;;;;;;;16.17;100.00;99128.44;5050389;28;20390;-94
2022/07/21 09:50:22;;;;;;;8.68;2.53;;;;;;;16.23;100.00;99122.13;5060103;28;20036;-96
2022/07/21 09:52:55;;;;;;;7.28;2.63;;;;;;;16.48;100.00;99132.03;5066755;28;20546;-96
2022/07/21 09:55:24;;;;;;;8.63;2.70;;;;;;;16.66;100.00;99141.16;5052527;28;20045;-94
2022/07/21 09:58:02;;;;;;;10.02;2.90;;;;;;;16.95;100.00;99131.59;5051275;28;20028;-94
2022/07/21 10:00:28;;;;;;;7.50;3.00;;;;;;;17.04;100.00;99100.56;5045595;28;20041;-95
2022/07/21 10:02:56;;;;;;;8.18;2.92;;;;;;;16.95;100.00;99105.25;5050991;28;20025;-95
2022/07/21 10:05:27;;;;;;;7.78;2.67;;;;;;;16.75;100.00;99113.72;5047629;28;20021;-95
2022/07/21 10:07:55;;;;;;;8.23;3.28;;;;;;;16.29;100.00;99113.22;5040273;28;20039;-94
2022/07/21 10:10:22;;;;;;;8.38;3.45;;;;;;;16.35;100.00;99119.19;5047686;28;20057;-95
2022/07/21 10:12:49;;;;;;;7.78;3.10;;;;;;;16.32;100.00;99123.66;5047308;28;20055;-94
2022/07/21 10:15:17;;;;;;;7.80;3.42;;;;;;;16.14;100.00;99131.13;5047589;28;20457;-95
2022/07/21 10:17:48;;;;;;;8.18;3.70;;;;;;;15.98;100.00;99128.03;5045468;28;20131;-94
2022/07/21 10:20:34;;;;;;;9.48;3.40;;;;;;;16.10;100.00;99136.50;5056218;28;20081;-94
2022/07/21 10:23:16;;;;;;;8.32;3.55;;;;;;;16.08;100.00;99146.22;5049284;28;20040;-94
2022/07/21 10:25:43;;;;;;;11.30;3.97;;;;;;;16.18;100.00;99158.22;5051186;28;20029;-93
2022/07/21 10:28:23;;;;;;;10.75;4.55;;;;;;;16.23;100.00;99145.81;5045797;28;20056;-94
2022/07/21 10:30:56;;;;;;;11.10;4.15;;;;;;;16.11;100.00;99138.25;5060358;28;20067;-93
2022/07/21 10:33:44;;;;;;;8.98;4.03;;;;;;;16.08;100.00;99131.28;4977955;28;20684;-94
2022/07/21 10:36:35;;;;;;;11.13;4.30;;;;;;;16.19;100.00;99125.75;5027637;28;20820;-92
2022/07/21 10:39:16;;;;;;;11.40;4.45;;;;;;;16.16;100.00;99131.09;5039945;28;20049;-93
2022/07/21 10:41:53;;;;;;;11.13;4.45;;;;;;;16.28;100.00;99129.91;5036909;28;20071;-93
2022/07/21 10:44:29;;;;;;;9.40;4.10;;;;;;;16.26;100.00;99131.72;5042596;28;20026;-93
2022/07/21 10:47:19;;;;;;;11.90;4.05;;;;;;;16.29;100.00;99118.47;5031053;28;20068;-94
2022/07/21 10:49:58;;;;;;;;;;;;;;;;;;;;;
2022/07/21 10:52:49;;;;;;;10.82;4.50;;;;;;;16.73;100.00;99132.19;5023673;28;20048;-93
2022/07/21 10:55:28;;;;;;;11.55;4.43;;;;;;;16.80;100.00;99122.31;5038687;28;20053;-93
2022/07/21 10:58:15;;;;;;;9.18;4.70;;;;;;;16.78;100.00;99121.53;5041219;28;20109;-94
2022/07/21 11:00:52;;;;;;;10.77;4.50;;;;;;;16.58;100.00;99108.94;5042253;28;20147;-93
2022/07/21 11:03:30;;;;;;;8.98;4.32;;;;;;;16.58;100.00;99119.47;5028594;28;20053;-94
2022/07/21 11:06:48;;;;;;;11.60;5.25;;;;;;;16.15;100.00;99111.81;5026188;28;20025;-92
2022/07/21 11:09:19;;;;;;;11.18;4.53;;;;;;;16.04;100.00;99113.84;5025105;28;20033;-92
2022/07/21 11:12:14;;;;;;;10.02;5.05;;;;;;;16.16;100.00;99121.44;5039622;28;20066;-92
2022/07/21 11:14:56;;;;;;;10.65;4.60;;;;;;;16.38;100.00;99116.47;5039670;28;20041;-92
2022/07/21 11:17:59;;;;;;;8.98;4.55;;;;;;;16.15;100.00;99121.47;5023901;28;20037;-93
2022/07/21 11:20:38;;;;;;;13.80;5.07;;;;;;;16.24;100.00;99115.09;5022445;28;20041;-92
2022/07/21 11:23:26;;;;;;;11.00;4.88;;;;;;;16.30;100.00;99118.44;5042589;28;20045;-91
2022/07/21 11:26:02;;;;;;;11.63;4.72;;;;;;;16.40;100.00;99119.06;5025382;28;20033;-92
2022/07/21 11:28:39;;;;;;;12.73;5.30;;;;;;;16.13;100.00;99120.63;5046351;28;20092;-91
2022/07/21 11:31:26;;;;;;;12.10;4.97;;;;;;;15.97;100.00;99105.25;5040791;28;20678;-90
2022/07/21 11:33:55;;;;;;;12.88;5.68;;;;;;;16.14;100.00;99115.31;4980101;28;21313;-91
2022/07/21 11:36:34;;;;;;;14.95;5.18;;;;;;;16.16;100.00;99118.81;5017397;28;20045;-90
2022/07/21 11:39:54;;;;;;;;;;;;;;;;;;;;;